Ballardsville, Mississippi
Current Conditions -  °F | °C
As of 7:53 AM on Friday 24 Oct 2014 (Local Time) from KTUP Reporting Station
Clear Clear  
Wind Chill: 49°   Ceiling: Unl
Heat Index: 49°   Visibility: 10mi
Dew Point: 45°   Wind: 3mph
Humidity: 86%   Direction: 20°NNE
Pressure: 30.13"   Gusts: NA
Location:  34.2235°N, 88.7398°W
Report Text: KTUP 241253Z 02003KT 10SM CLR 09/07 A3013 RMK AO2 SLP202 T00940072
Loading
Personal Weather Stations






























Interactive Weather Map
Tropical Storm Tracking
New forecast layout! Learn more

10-Day Weather Forecast

Advertisements
Track Severe Weather on mobile